createdAt,value
2023-05-05T00:01:03.158Z,77.00
2023-05-05T00:03:31.104Z,77.16
2023-05-05T00:05:58.986Z,77.47
2023-05-05T00:08:27.796Z,77.38
2023-05-05T00:10:56.535Z,77.25
2023-05-05T00:13:24.799Z,77.19
2023-05-05T00:15:54.107Z,77.10
2023-05-05T00:18:22.265Z,76.89
2023-05-05T00:20:50.224Z,76.85
2023-05-05T00:23:20.358Z,76.81
2023-05-05T00:25:48.221Z,76.68
2023-05-05T00:28:16.044Z,76.62
2023-05-05T00:30:43.922Z,76.62
2023-05-05T00:33:12.253Z,76.71
2023-05-05T00:35:40.416Z,76.80
2023-05-05T00:38:08.592Z,76.78
2023-05-05T00:40:38.028Z,76.88
2023-05-05T00:43:07.722Z,76.83
2023-05-05T00:45:37.434Z,77.03
2023-05-05T00:48:06.943Z,77.18
2023-05-05T00:50:35.187Z,77.22
2023-05-05T00:53:06.636Z,77.18
2023-05-05T00:55:35.303Z,77.23
2023-05-05T00:58:04.467Z,77.20
2023-05-05T01:00:33.053Z,77.08
2023-05-05T01:03:01.422Z,77.11
2023-05-05T01:06:02.754Z,77.10
2023-05-05T01:09:28.236Z,77.09
2023-05-05T01:12:15.790Z,77.15
2023-05-05T01:15:01.408Z,77.24
2023-05-05T01:17:47.543Z,77.52
2023-05-05T01:20:42.226Z,77.40
2023-05-05T01:23:24.103Z,77.48
2023-05-05T01:26:24.405Z,77.34
2023-05-05T01:29:09.625Z,77.40
2023-05-05T01:32:04.242Z,77.31
2023-05-05T01:34:42.826Z,77.28
2023-05-05T01:37:18.997Z,77.20
2023-05-05T01:39:52.689Z,77.20
2023-05-05T01:42:22.840Z,77.04
2023-05-05T01:44:54.176Z,77.09
2023-05-05T01:47:23.803Z,77.13
2023-05-05T01:49:53.775Z,77.07
2023-05-05T01:52:23.408Z,77.19
2023-05-05T01:54:53.253Z,77.07
2023-05-05T01:57:26.524Z,77.02
2023-05-05T01:59:56.194Z,77.03
2023-05-05T02:02:28.946Z,77.08
2023-05-05T02:04:59.077Z,77.04
2023-05-05T02:07:28.249Z,77.03
2023-05-05T02:09:56.988Z,77.12
2023-05-05T02:12:26.614Z,77.21
2023-05-05T02:14:59.854Z,77.28
2023-05-05T02:17:29.506Z,77.24
2023-05-05T02:20:01.112Z,77.17
2023-05-05T02:22:29.044Z,77.30
2023-05-05T02:24:57.101Z,77.27
2023-05-05T02:27:27.250Z,77.17
2023-05-05T02:30:07.346Z,77.11
2023-05-05T02:32:46.840Z,77.33
2023-05-05T02:35:22.347Z,77.39
2023-05-05T02:38:05.508Z,77.55
2023-05-05T02:40:42.047Z,77.56
2023-05-05T02:43:16.811Z,77.56
2023-05-05T02:45:45.755Z,77.58
2023-05-05T02:48:14.288Z,77.52
2023-05-05T02:50:42.160Z,77.59
2023-05-05T02:53:15.277Z,77.69
2023-05-05T02:55:57.304Z,77.64
2023-05-05T02:58:34.605Z,77.62
2023-05-05T03:01:25.052Z,77.69
2023-05-05T03:04:12.061Z,77.70
2023-05-05T03:06:51.151Z,77.79
2023-05-05T03:09:30.859Z,77.88
2023-05-05T03:12:06.745Z,78.01
2023-05-05T03:14:45.552Z,78.03
2023-05-05T03:17:18.353Z,78.05
2023-05-05T03:19:49.368Z,78.00
2023-05-05T03:22:17.657Z,77.93
2023-05-05T03:24:51.567Z,78.02
2023-05-05T03:27:22.730Z,78.11
2023-05-05T03:29:50.533Z,78.10
2023-05-05T03:32:18.562Z,77.93
2023-05-05T03:34:46.797Z,77.96
2023-05-05T03:37:14.902Z,77.91
2023-05-05T03:39:42.851Z,77.88
2023-05-05T03:42:10.806Z,77.68
2023-05-05T03:44:38.662Z,77.42
2023-05-05T03:47:06.614Z,77.56
2023-05-05T03:49:35.292Z,77.54
2023-05-05T03:52:03.888Z,77.43
2023-05-05T03:54:31.863Z,77.37
2023-05-05T03:56:59.954Z,77.57
2023-05-05T03:59:27.933Z,77.76
2023-05-05T04:01:55.724Z,77.95
2023-05-05T04:04:23.736Z,78.14
2023-05-05T04:06:52.496Z,78.11
2023-05-05T04:09:20.505Z,78.20
2023-05-05T04:11:48.481Z,78.28
2023-05-05T04:14:16.393Z,78.34
2023-05-05T04:16:44.356Z,78.35
2023-05-05T04:19:13.215Z,78.41
2023-05-05T04:21:41.358Z,78.40
2023-05-05T04:24:10.420Z,78.49
2023-05-05T04:26:38.314Z,78.44
2023-05-05T04:29:06.099Z,78.43
2023-05-05T04:31:34.800Z,78.40
2023-05-05T04:34:02.774Z,78.37
2023-05-05T04:36:30.793Z,78.36
2023-05-05T04:38:58.959Z,78.42
2023-05-05T04:41:28.940Z,78.49
2023-05-05T04:43:58.050Z,78.53
2023-05-05T04:46:26.374Z,78.58
2023-05-05T04:48:54.365Z,78.56
2023-05-05T04:51:22.299Z,78.67
2023-05-05T04:53:50.043Z,78.79
2023-05-05T04:56:18.738Z,78.85
2023-05-05T04:58:46.576Z,78.89
2023-05-05T05:01:14.391Z,78.88
2023-05-05T05:03:42.497Z,78.80
2023-05-05T05:06:10.511Z,78.87
2023-05-05T05:08:38.314Z,78.99
2023-05-05T05:11:06.481Z,78.91
2023-05-05T05:13:34.663Z,78.90
2023-05-05T05:16:02.725Z,78.96
2023-05-05T05:18:30.585Z,78.98
2023-05-05T05:20:58.531Z,79.00
2023-05-05T05:23:26.367Z,78.93
2023-05-05T05:25:54.549Z,78.97
2023-05-05T05:28:23.541Z,78.89
2023-05-05T05:30:54.193Z,78.81
2023-05-05T05:33:22.385Z,78.90
2023-05-05T05:35:50.644Z,78.97
2023-05-05T05:38:19.605Z,79.04
2023-05-05T05:40:48.225Z,78.87
2023-05-05T05:43:16.186Z,78.79
2023-05-05T05:45:44.042Z,78.74
2023-05-05T05:48:12.223Z,78.68
2023-05-05T05:50:39.974Z,78.51
2023-05-05T05:53:08.081Z,78.50
2023-05-05T05:55:36.159Z,78.42
2023-05-05T05:58:04.485Z,78.39
2023-05-05T06:00:32.510Z,78.43
2023-05-05T06:03:03.518Z,78.43
2023-05-05T06:05:33.500Z,78.63
2023-05-05T06:08:01.421Z,78.51
2023-05-05T06:10:30.134Z,78.35
2023-05-05T06:13:02.270Z,78.56
2023-05-05T06:15:30.629Z,78.80
2023-05-05T06:17:58.904Z,78.92
2023-05-05T06:20:27.590Z,79.14
2023-05-05T06:22:55.992Z,79.25
2023-05-05T06:25:23.961Z,79.30
2023-05-05T06:27:52.206Z,79.13
2023-05-05T06:30:20.067Z,79.15
2023-05-05T06:32:47.799Z,79.06
2023-05-05T06:35:15.879Z,79.19
2023-05-05T06:37:44.351Z,79.23
2023-05-05T06:40:13.047Z,79.10
2023-05-05T06:42:41.456Z,78.89
2023-05-05T06:45:11.575Z,78.95
2023-05-05T06:47:39.529Z,78.66
2023-05-05T06:50:09.289Z,78.49
2023-05-05T06:52:37.433Z,78.31
2023-05-05T06:55:06.405Z,78.06
2023-05-05T06:57:34.180Z,78.15
2023-05-05T07:00:05.959Z,78.04
2023-05-05T07:02:33.992Z,78.19
2023-05-05T07:05:02.037Z,77.97
2023-05-05T07:07:31.702Z,78.20
2023-05-05T07:09:59.553Z,78.13
2023-05-05T07:12:31.146Z,78.30
2023-05-05T07:14:59.024Z,78.59
2023-05-05T07:17:26.877Z,78.80
2023-05-05T07:19:55.105Z,79.00
2023-05-05T07:22:22.863Z,79.12
2023-05-05T07:24:53.392Z,79.22
2023-05-05T07:27:22.628Z,79.30
2023-05-05T07:29:50.473Z,79.45
2023-05-05T07:32:18.606Z,79.62
2023-05-05T07:34:46.541Z,79.88
2023-05-05T07:37:14.484Z,80.20
2023-05-05T07:39:42.324Z,80.59
2023-05-05T07:42:10.898Z,80.86
2023-05-05T07:44:39.245Z,81.10
2023-05-05T07:47:07.072Z,81.40
2023-05-05T07:49:34.914Z,81.60
2023-05-05T07:52:03.003Z,81.81
2023-05-05T07:54:31.348Z,81.96
2023-05-05T07:56:59.455Z,82.11
2023-05-05T07:59:27.619Z,82.50
2023-05-05T08:01:55.547Z,82.94
2023-05-05T08:04:23.374Z,83.28
2023-05-05T08:06:51.226Z,83.39
2023-05-05T08:09:18.977Z,83.61
2023-05-05T08:11:46.757Z,83.37
2023-05-05T08:14:15.220Z,83.11
2023-05-05T08:16:43.036Z,82.84
2023-05-05T08:19:17.855Z,82.88
2023-05-05T08:21:56.181Z,82.24
2023-05-05T08:24:24.031Z,81.34
2023-05-05T08:26:51.914Z,80.43
2023-05-05T08:29:20.101Z,80.41
2023-05-05T08:31:48.095Z,80.33
2023-05-05T08:34:15.975Z,80.64
2023-05-05T08:36:43.885Z,79.35
2023-05-05T08:39:11.692Z,79.52
2023-05-05T08:41:39.588Z,79.61
2023-05-05T08:44:08.964Z,79.14
2023-05-05T08:46:37.988Z,79.09
2023-05-05T08:49:11.204Z,79.07
2023-05-05T08:51:44.298Z,79.26
2023-05-05T08:54:20.176Z,79.37
2023-05-05T08:56:51.532Z,79.42
2023-05-05T08:59:25.123Z,79.12
2023-05-05T09:01:53.971Z,79.51
2023-05-05T09:04:21.934Z,79.73
2023-05-05T09:06:50.027Z,79.66
2023-05-05T09:09:19.022Z,79.95
2023-05-05T09:11:47.395Z,80.00
2023-05-05T09:14:15.182Z,80.21
2023-05-05T09:16:44.222Z,80.27
2023-05-05T09:19:12.054Z,80.48
2023-05-05T09:21:49.033Z,80.58
2023-05-05T09:24:16.852Z,80.74
2023-05-05T09:26:47.315Z,80.80
2023-05-05T09:29:22.730Z,80.92
2023-05-05T09:32:11.217Z,81.02
2023-05-05T09:34:39.179Z,81.32
2023-05-05T09:37:07.020Z,81.48
2023-05-05T09:39:35.035Z,81.39
2023-05-05T09:42:03.300Z,81.47
2023-05-05T09:44:38.105Z,81.24
2023-05-05T09:47:14.791Z,80.81
2023-05-05T09:49:59.470Z,80.56
2023-05-05T09:52:27.994Z,80.57
2023-05-05T09:54:57.445Z,80.38
2023-05-05T09:57:28.183Z,80.14
2023-05-05T10:00:01.795Z,79.89
2023-05-05T10:02:39.041Z,78.70
2023-05-05T10:05:12.864Z,78.08
2023-05-05T10:07:43.520Z,77.18
2023-05-05T10:10:15.526Z,77.11
2023-05-05T10:12:46.457Z,77.33
2023-05-05T10:15:16.286Z,77.40
2023-05-05T10:20:22.706Z,77.85
2023-05-05T10:22:53.417Z,78.12
2023-05-05T10:25:38.434Z,77.48
2023-05-05T10:28:11.801Z,77.05
2023-05-05T10:30:46.337Z,76.64
2023-05-05T10:33:31.604Z,75.66
2023-05-05T10:36:06.642Z,74.82
2023-05-05T10:38:36.094Z,75.44
2023-05-05T10:41:04.409Z,75.38
2023-05-05T10:43:32.770Z,75.69
2023-05-05T10:46:01.505Z,74.01
2023-05-05T10:48:45.045Z,73.86
2023-05-05T10:51:39.370Z,73.56
2023-05-05T10:54:24.564Z,74.56
2023-05-05T10:56:53.221Z,74.43
2023-05-05T10:59:39.128Z,74.17
2023-05-05T11:02:27.313Z,73.65
2023-05-05T11:05:18.354Z,73.98
2023-05-05T11:07:49.937Z,73.45
2023-05-05T11:10:21.012Z,71.92
2023-05-05T11:12:52.102Z,71.06
2023-05-05T11:15:33.571Z,70.92
2023-05-05T11:18:07.323Z,70.27
2023-05-05T11:20:37.103Z,69.42
2023-05-05T11:23:05.377Z,70.45
2023-05-05T11:25:37.063Z,69.08
2023-05-05T11:28:13.683Z,68.78
2023-05-05T11:30:57.902Z,70.26
2023-05-05T11:33:30.718Z,69.74
2023-05-05T11:36:08.834Z,69.63
2023-05-05T11:38:36.553Z,70.12
2023-05-05T11:41:17.799Z,69.19
2023-05-05T11:43:45.889Z,69.28
2023-05-05T11:46:17.323Z,68.46
2023-05-05T11:48:52.023Z,68.94
2023-05-05T11:51:20.301Z,67.83
2023-05-05T11:53:49.637Z,69.11
2023-05-05T11:56:19.678Z,69.69
2023-05-05T11:59:10.819Z,68.79
2023-05-05T12:01:42.613Z,68.63
2023-05-05T12:04:16.145Z,68.63
2023-05-05T12:06:46.184Z,69.44
2023-05-05T12:09:16.899Z,70.12
2023-05-05T12:11:49.687Z,70.44
2023-05-05T12:14:17.485Z,69.90
2023-05-05T12:17:07.086Z,68.45
2023-05-05T12:19:36.299Z,68.54
2023-05-05T12:22:05.236Z,67.30
2023-05-05T12:24:33.191Z,67.46
2023-05-05T12:27:12.112Z,67.05
2023-05-05T12:29:39.929Z,65.16
2023-05-05T12:32:19.747Z,65.46
2023-05-05T12:34:49.222Z,63.85
2023-05-05T12:37:19.691Z,64.50
2023-05-05T12:39:48.314Z,64.46
2023-05-05T12:42:17.118Z,62.75
2023-05-05T12:44:45.035Z,62.50
2023-05-05T12:47:14.172Z,61.10
2023-05-05T12:49:50.829Z,59.94
2023-05-05T12:52:19.035Z,61.40
2023-05-05T12:54:54.996Z,62.87
2023-05-05T12:57:23.655Z,63.41
2023-05-05T12:59:52.863Z,63.05
2023-05-05T13:02:21.186Z,62.43
2023-05-05T13:04:54.509Z,62.89
2023-05-05T13:07:22.492Z,62.91
2023-05-05T13:09:51.331Z,62.09
2023-05-05T13:12:19.319Z,61.84
2023-05-05T13:14:47.304Z,61.13
2023-05-05T13:17:15.298Z,60.29
2023-05-05T13:19:46.270Z,58.50
2023-05-05T13:22:14.552Z,58.90
2023-05-05T13:24:51.913Z,58.68
2023-05-05T13:27:20.729Z,58.63
2023-05-05T13:29:48.672Z,58.20
2023-05-05T13:32:16.655Z,57.54
2023-05-05T13:34:44.464Z,58.10
2023-05-05T13:37:12.581Z,57.48
2023-05-05T13:39:40.405Z,57.20
2023-05-05T13:42:08.333Z,57.48
2023-05-05T13:44:36.261Z,58.27
2023-05-05T13:47:04.215Z,59.06
2023-05-05T13:49:32.058Z,58.73
2023-05-05T13:52:00.179Z,58.49
2023-05-05T13:54:28.130Z,58.44
2023-05-05T13:56:55.897Z,58.19
2023-05-05T13:59:25.815Z,59.21
2023-05-05T14:01:54.028Z,58.81
2023-05-05T14:04:21.959Z,58.13
2023-05-05T14:06:49.845Z,56.91
2023-05-05T14:09:17.780Z,56.81
2023-05-05T14:11:45.517Z,56.29
2023-05-05T14:14:13.232Z,56.94
2023-05-05T14:16:41.203Z,56.53
2023-05-05T14:19:09.091Z,56.86
2023-05-05T14:21:36.913Z,58.32
2023-05-05T14:24:05.295Z,60.26
2023-05-05T14:26:33.105Z,60.54
2023-05-05T14:29:00.924Z,61.48
2023-05-05T14:31:29.734Z,62.14
2023-05-05T14:33:57.537Z,61.93
2023-05-05T14:36:25.415Z,60.50
2023-05-05T14:38:53.215Z,59.05
2023-05-05T14:41:21.386Z,58.70
2023-05-05T14:43:49.185Z,59.28
2023-05-05T14:46:17.122Z,59.30
2023-05-05T14:48:46.479Z,61.21
2023-05-05T14:51:15.970Z,63.06
2023-05-05T14:53:43.831Z,63.76
2023-05-05T14:56:11.601Z,64.56
2023-05-05T14:58:39.687Z,64.46
2023-05-05T15:01:07.826Z,63.73
2023-05-05T15:03:35.882Z,62.34
2023-05-05T15:06:04.839Z,62.47
2023-05-05T15:08:32.708Z,60.02
2023-05-05T15:11:01.014Z,59.70
2023-05-05T15:13:29.731Z,59.16
2023-05-05T15:15:57.727Z,59.47
2023-05-05T15:18:25.635Z,59.17
2023-05-05T15:20:53.459Z,59.04
2023-05-05T15:23:21.504Z,58.89
2023-05-05T15:25:49.390Z,58.62
2023-05-05T15:28:18.720Z,58.04
2023-05-05T15:30:46.508Z,58.11
2023-05-05T15:33:14.360Z,57.76
2023-05-05T15:35:42.702Z,56.85
2023-05-05T15:38:10.631Z,56.08
2023-05-05T15:40:38.420Z,55.53
2023-05-05T15:43:06.868Z,55.41
2023-05-05T15:45:35.175Z,55.22
2023-05-05T15:48:03.143Z,55.37
2023-05-05T15:50:30.995Z,55.60
2023-05-05T15:52:59.066Z,55.98
2023-05-05T15:55:27.787Z,56.28
2023-05-05T15:57:55.585Z,56.72
2023-05-05T16:00:23.505Z,56.65
2023-05-05T16:02:51.438Z,55.96
2023-05-05T16:05:22.117Z,56.47
2023-05-05T16:07:51.798Z,56.63
2023-05-05T16:10:20.539Z,57.14
2023-05-05T16:12:48.891Z,57.22
2023-05-05T16:15:16.819Z,56.90
2023-05-05T16:17:44.638Z,56.76
2023-05-05T16:20:12.818Z,57.16
2023-05-05T16:22:41.112Z,56.41
2023-05-05T16:25:09.699Z,55.49
2023-05-05T16:27:37.727Z,55.08
2023-05-05T16:30:07.203Z,54.81
2023-05-05T16:32:35.040Z,53.40
2023-05-05T16:35:02.982Z,51.90
2023-05-05T16:37:30.950Z,52.19
2023-05-05T16:40:00.727Z,52.70
2023-05-05T16:42:28.657Z,52.48
2023-05-05T16:44:56.425Z,53.47
2023-05-05T16:47:24.286Z,53.80
2023-05-05T16:49:52.576Z,54.07
2023-05-05T16:52:20.386Z,53.68
2023-05-05T16:54:55.217Z,53.52
2023-05-05T16:57:23.969Z,54.40
2023-05-05T16:59:57.294Z,54.63
2023-05-05T17:02:25.185Z,54.29
2023-05-05T17:04:53.107Z,54.93
2023-05-05T17:07:21.398Z,55.14
2023-05-05T17:09:49.651Z,55.31
2023-05-05T17:12:17.615Z,55.17
2023-05-05T17:14:46.019Z,55.67
2023-05-05T17:17:14.296Z,55.84
2023-05-05T17:19:42.734Z,55.31
2023-05-05T17:22:10.780Z,54.87
2023-05-05T17:24:38.702Z,54.64
2023-05-05T17:27:06.522Z,54.65
2023-05-05T17:29:40.752Z,54.69
2023-05-05T17:32:09.360Z,54.25
2023-05-05T17:34:37.785Z,54.25
2023-05-05T17:37:05.724Z,54.02
2023-05-05T17:39:33.543Z,53.99
2023-05-05T17:42:01.394Z,54.13
2023-05-05T17:44:29.275Z,54.78
2023-05-05T17:46:57.281Z,55.28
2023-05-05T17:49:25.508Z,55.87
2023-05-05T17:51:53.766Z,56.22
2023-05-05T17:54:21.749Z,56.40
2023-05-05T17:56:49.550Z,56.82
2023-05-05T17:59:18.290Z,56.82
2023-05-05T18:01:46.127Z,57.07
2023-05-05T18:04:14.046Z,57.23
2023-05-05T18:06:41.915Z,57.16
2023-05-05T18:09:11.247Z,57.51
2023-05-05T18:11:39.252Z,57.64
2023-05-05T18:14:07.055Z,57.90
2023-05-05T18:16:34.914Z,58.66
2023-05-05T18:19:03.503Z,59.06
2023-05-05T18:21:32.066Z,59.53
2023-05-05T18:24:11.523Z,59.81
2023-05-05T18:26:52.134Z,59.74
2023-05-05T18:29:21.952Z,59.98
2023-05-05T18:31:56.988Z,60.27
2023-05-05T18:34:29.471Z,60.39
2023-05-05T18:36:58.956Z,60.41
2023-05-05T18:39:28.144Z,60.34
2023-05-05T18:41:55.948Z,60.73
2023-05-05T18:44:24.000Z,60.86
2023-05-05T18:46:52.021Z,61.27
2023-05-05T18:49:19.905Z,61.58
2023-05-05T18:51:47.696Z,61.82
2023-05-05T18:54:15.643Z,61.86
2023-05-05T18:56:43.791Z,62.12
2023-05-05T18:59:11.780Z,62.42
2023-05-05T19:01:39.809Z,62.75
2023-05-05T19:04:18.794Z,63.02
2023-05-05T19:06:54.834Z,63.15
2023-05-05T19:09:22.581Z,63.50
2023-05-05T19:11:51.055Z,63.74
2023-05-05T19:14:19.045Z,63.99
2023-05-05T19:16:47.145Z,64.37
2023-05-05T19:19:15.287Z,64.65
2023-05-05T19:21:43.237Z,64.82
2023-05-05T19:24:11.948Z,65.12
2023-05-05T19:26:40.031Z,65.35
2023-05-05T19:29:07.856Z,65.64
2023-05-05T19:31:36.553Z,65.99
2023-05-05T19:34:05.352Z,66.38
2023-05-05T19:36:34.717Z,66.55
2023-05-05T19:39:05.472Z,66.60
2023-05-05T19:41:35.452Z,67.08
2023-05-05T19:44:03.653Z,67.36
2023-05-05T19:46:32.412Z,67.50
2023-05-05T19:49:01.417Z,67.68
2023-05-05T19:51:29.366Z,67.93
2023-05-05T19:53:57.334Z,68.16
2023-05-05T19:56:26.032Z,68.33
2023-05-05T19:58:57.346Z,68.41
2023-05-05T20:01:25.588Z,68.70
2023-05-05T20:03:56.048Z,68.96
2023-05-05T20:06:24.822Z,69.18
2023-05-05T20:08:54.683Z,69.43
2023-05-05T20:11:23.133Z,69.74
2023-05-05T20:13:51.705Z,69.95
2023-05-05T20:16:21.530Z,70.19
2023-05-05T20:18:49.784Z,70.30
2023-05-05T20:21:18.356Z,70.50
2023-05-05T20:23:46.568Z,70.86
2023-05-05T20:26:14.607Z,71.08
2023-05-05T20:28:45.365Z,71.25
2023-05-05T20:31:14.694Z,71.40
2023-05-05T20:33:42.688Z,71.43
2023-05-05T20:36:11.447Z,71.69
2023-05-05T20:38:39.277Z,72.03
2023-05-05T20:41:07.263Z,72.11
2023-05-05T20:43:36.749Z,72.15
2023-05-05T20:46:04.570Z,72.17
2023-05-05T20:48:32.320Z,72.37
2023-05-05T20:51:04.400Z,72.42
2023-05-05T20:53:32.898Z,72.52
2023-05-05T20:56:00.931Z,72.69
2023-05-05T20:58:30.122Z,72.64
2023-05-05T21:00:58.078Z,72.69
2023-05-05T21:03:25.940Z,72.60
2023-05-05T21:05:54.293Z,72.69
2023-05-05T21:08:22.299Z,72.91
2023-05-05T21:10:50.204Z,73.21
2023-05-05T21:13:18.223Z,73.45
2023-05-05T21:15:46.320Z,73.53
2023-05-05T21:18:14.204Z,73.68
2023-05-05T21:20:42.265Z,73.84
2023-05-05T21:23:10.123Z,74.19
2023-05-05T21:25:37.991Z,74.60
2023-05-05T21:28:05.943Z,74.86
2023-05-05T21:30:33.918Z,75.22
2023-05-05T21:33:01.929Z,75.47
2023-05-05T21:35:30.039Z,75.67
2023-05-05T21:37:58.111Z,75.80
2023-05-05T21:40:26.342Z,76.06
2023-05-05T21:42:54.156Z,76.12
2023-05-05T21:45:22.135Z,76.21
2023-05-05T21:47:50.368Z,76.31
2023-05-05T21:50:18.325Z,76.30
2023-05-05T21:52:46.179Z,76.43
2023-05-05T21:55:13.971Z,76.68
2023-05-05T21:57:41.734Z,76.69
2023-05-05T22:00:16.571Z,76.91
2023-05-05T22:02:45.479Z,77.15
2023-05-05T22:05:13.485Z,77.54
2023-05-05T22:07:41.431Z,77.79
2023-05-05T22:10:09.933Z,77.89
2023-05-05T22:12:38.098Z,77.95
2023-05-05T22:15:06.850Z,78.09
2023-05-05T22:17:35.287Z,78.40
2023-05-05T22:20:05.054Z,78.24
2023-05-05T22:22:33.141Z,78.34
2023-05-05T22:25:01.087Z,78.45
2023-05-05T22:27:28.831Z,78.65
2023-05-05T22:29:57.495Z,78.80
2023-05-05T22:32:25.575Z,78.88
2023-05-05T22:34:53.380Z,78.96
2023-05-05T22:37:21.472Z,79.00
2023-05-05T22:39:49.446Z,78.96
2023-05-05T22:42:17.318Z,78.80
2023-05-05T22:44:45.148Z,79.03
2023-05-05T22:47:13.391Z,78.95
2023-05-05T22:49:41.264Z,78.85
2023-05-05T22:52:09.071Z,78.94
2023-05-05T22:54:37.009Z,79.12
2023-05-05T22:57:04.768Z,79.30
2023-05-05T22:59:32.532Z,79.29
2023-05-05T23:02:00.407Z,79.40
2023-05-05T23:04:28.289Z,79.43
2023-05-05T23:06:56.766Z,79.47
2023-05-05T23:09:24.601Z,79.61
2023-05-05T23:11:52.451Z,79.68
2023-05-05T23:14:20.397Z,79.64
2023-05-05T23:16:48.451Z,79.56
2023-05-05T23:19:16.224Z,79.32
2023-05-05T23:21:52.797Z,79.23
2023-05-05T23:24:22.276Z,79.29
2023-05-05T23:26:51.909Z,79.23
2023-05-05T23:29:20.636Z,79.32
2023-05-05T23:31:48.663Z,79.52
2023-05-05T23:34:16.650Z,79.51
2023-05-05T23:36:44.704Z,79.72
2023-05-05T23:39:12.511Z,79.62
2023-05-05T23:41:40.373Z,79.80
2023-05-05T23:44:08.309Z,79.77
2023-05-05T23:46:36.269Z,79.88
2023-05-05T23:49:04.258Z,79.97
2023-05-05T23:51:32.115Z,80.14
2023-05-05T23:53:59.900Z,80.32
2023-05-05T23:56:27.766Z,80.43
2023-05-05T23:58:56.226Z,80.51
